sensor_id;sensor_type;location;lat;lon;timestamp;P1;durP1;ratioP1;P2;durP2;ratioP2
53654;SDS011;39558;52.028;8.536;2022-08-19T00:00:28;6.65;;;3.92;;
53654;SDS011;39558;52.028;8.536;2022-08-19T00:02:54;7.05;;;3.83;;
53654;SDS011;39558;52.028;8.536;2022-08-19T00:05:20;5.95;;;4.28;;
53654;SDS011;39558;52.028;8.536;2022-08-19T00:07:46;6.93;;;4.00;;
53654;SDS011;39558;52.028;8.536;2022-08-19T00:10:14;5.43;;;3.97;;
53654;SDS011;39558;52.028;8.536;2022-08-19T00:12:40;8.05;;;4.70;;
53654;SDS011;39558;52.028;8.536;2022-08-19T00:15:07;8.07;;;4.18;;
53654;SDS011;39558;52.028;8.536;2022-08-19T00:17:38;6.55;;;4.50;;
53654;SDS011;39558;52.028;8.536;2022-08-19T00:20:04;9.05;;;4.28;;
53654;SDS011;39558;52.028;8.536;2022-08-19T00:22:31;7.22;;;4.40;;
53654;SDS011;39558;52.028;8.536;2022-08-19T00:24:57;7.90;;;3.92;;
53654;SDS011;39558;52.028;8.536;2022-08-19T00:27:23;7.22;;;4.43;;
53654;SDS011;39558;52.028;8.536;2022-08-19T00:29:49;6.65;;;3.97;;
53654;SDS011;39558;52.028;8.536;2022-08-19T00:32:15;5.53;;;4.22;;
53654;SDS011;39558;52.028;8.536;2022-08-19T00:34:41;6.00;;;4.05;;
53654;SDS011;39558;52.028;8.536;2022-08-19T00:37:08;6.60;;;4.40;;
53654;SDS011;39558;52.028;8.536;2022-08-19T00:39:34;6.28;;;4.30;;
53654;SDS011;39558;52.028;8.536;2022-08-19T00:42:00;5.13;;;3.78;;
53654;SDS011;39558;52.028;8.536;2022-08-19T00:44:27;6.85;;;4.80;;
53654;SDS011;39558;52.028;8.536;2022-08-19T00:46:54;6.45;;;4.43;;
53654;SDS011;39558;52.028;8.536;2022-08-19T00:49:31;7.35;;;4.47;;
53654;SDS011;39558;52.028;8.536;2022-08-19T00:52:05;9.18;;;4.78;;
53654;SDS011;39558;52.028;8.536;2022-08-19T00:54:32;7.72;;;4.97;;
53654;SDS011;39558;52.028;8.536;2022-08-19T00:56:58;5.82;;;4.75;;
53654;SDS011;39558;52.028;8.536;2022-08-19T00:59:25;6.53;;;4.43;;
53654;SDS011;39558;52.028;8.536;2022-08-19T01:01:51;6.80;;;4.50;;
53654;SDS011;39558;52.028;8.536;2022-08-19T01:04:17;6.47;;;4.50;;
53654;SDS011;39558;52.028;8.536;2022-08-19T01:06:43;7.60;;;4.57;;
53654;SDS011;39558;52.028;8.536;2022-08-19T01:09:09;6.13;;;4.55;;
53654;SDS011;39558;52.028;8.536;2022-08-19T01:11:36;6.95;;;4.40;;
53654;SDS011;39558;52.028;8.536;2022-08-19T01:14:04;10.00;;;4.05;;
53654;SDS011;39558;52.028;8.536;2022-08-19T01:16:30;9.75;;;4.72;;
53654;SDS011;39558;52.028;8.536;2022-08-19T01:18:57;7.55;;;5.32;;
53654;SDS011;39558;52.028;8.536;2022-08-19T01:21:30;6.55;;;4.70;;
53654;SDS011;39558;52.028;8.536;2022-08-19T01:23:57;6.25;;;4.45;;
53654;SDS011;39558;52.028;8.536;2022-08-19T01:26:23;8.52;;;5.28;;
53654;SDS011;39558;52.028;8.536;2022-08-19T01:28:51;5.57;;;4.35;;
53654;SDS011;39558;52.028;8.536;2022-08-19T01:31:18;8.27;;;4.57;;
53654;SDS011;39558;52.028;8.536;2022-08-19T01:33:46;6.70;;;4.53;;
53654;SDS011;39558;52.028;8.536;2022-08-19T01:36:21;7.75;;;4.57;;
53654;SDS011;39558;52.028;8.536;2022-08-19T01:38:47;7.32;;;4.10;;
53654;SDS011;39558;52.028;8.536;2022-08-19T01:41:14;7.10;;;4.53;;
53654;SDS011;39558;52.028;8.536;2022-08-19T01:43:41;6.20;;;4.40;;
53654;SDS011;39558;52.028;8.536;2022-08-19T01:46:06;5.25;;;3.92;;
53654;SDS011;39558;52.028;8.536;2022-08-19T01:48:34;7.70;;;4.43;;
53654;SDS011;39558;52.028;8.536;2022-08-19T01:51:00;6.30;;;4.00;;
53654;SDS011;39558;52.028;8.536;2022-08-19T01:53:26;8.18;;;4.72;;
53654;SDS011;39558;52.028;8.536;2022-08-19T01:55:52;6.30;;;3.95;;
53654;SDS011;39558;52.028;8.536;2022-08-19T01:58:20;6.97;;;4.60;;
53654;SDS011;39558;52.028;8.536;2022-08-19T02:00:46;7.00;;;4.22;;
53654;SDS011;39558;52.028;8.536;2022-08-19T02:03:12;6.30;;;4.18;;
53654;SDS011;39558;52.028;8.536;2022-08-19T02:05:39;6.95;;;4.47;;
53654;SDS011;39558;52.028;8.536;2022-08-19T02:08:05;6.10;;;4.22;;
53654;SDS011;39558;52.028;8.536;2022-08-19T02:10:31;7.38;;;4.60;;
53654;SDS011;39558;52.028;8.536;2022-08-19T02:12:57;8.02;;;4.65;;
53654;SDS011;39558;52.028;8.536;2022-08-19T02:15:23;7.75;;;4.35;;
53654;SDS011;39558;52.028;8.536;2022-08-19T02:17:50;8.38;;;4.57;;
53654;SDS011;39558;52.028;8.536;2022-08-19T02:20:16;5.88;;;4.03;;
53654;SDS011;39558;52.028;8.536;2022-08-19T02:22:43;9.45;;;4.28;;
53654;SDS011;39558;52.028;8.536;2022-08-19T02:25:12;7.38;;;4.82;;
53654;SDS011;39558;52.028;8.536;2022-08-19T02:27:39;6.15;;;4.00;;
53654;SDS011;39558;52.028;8.536;2022-08-19T02:30:06;9.45;;;4.47;;
53654;SDS011;39558;52.028;8.536;2022-08-19T02:32:33;6.28;;;3.67;;
53654;SDS011;39558;52.028;8.536;2022-08-19T02:34:59;7.78;;;4.30;;
53654;SDS011;39558;52.028;8.536;2022-08-19T02:37:24;8.35;;;4.55;;
53654;SDS011;39558;52.028;8.536;2022-08-19T02:40:09;8.43;;;3.92;;
53654;SDS011;39558;52.028;8.536;2022-08-19T02:42:35;6.13;;;4.25;;
53654;SDS011;39558;52.028;8.536;2022-08-19T02:45:01;6.93;;;4.15;;
53654;SDS011;39558;52.028;8.536;2022-08-19T02:47:27;6.60;;;4.75;;
53654;SDS011;39558;52.028;8.536;2022-08-19T02:49:53;8.57;;;4.40;;
53654;SDS011;39558;52.028;8.536;2022-08-19T02:52:19;7.20;;;4.45;;
53654;SDS011;39558;52.028;8.536;2022-08-19T02:54:45;7.30;;;4.53;;
53654;SDS011;39558;52.028;8.536;2022-08-19T02:57:11;7.93;;;4.38;;
53654;SDS011;39558;52.028;8.536;2022-08-19T02:59:36;7.00;;;3.92;;
53654;SDS011;39558;52.028;8.536;2022-08-19T03:02:02;6.38;;;4.22;;
53654;SDS011;39558;52.028;8.536;2022-08-19T03:04:28;8.20;;;3.92;;
53654;SDS011;39558;52.028;8.536;2022-08-19T03:06:54;6.90;;;4.10;;
53654;SDS011;39558;52.028;8.536;2022-08-19T03:09:20;6.68;;;4.70;;
53654;SDS011;39558;52.028;8.536;2022-08-19T03:11:46;5.68;;;4.20;;
53654;SDS011;39558;52.028;8.536;2022-08-19T03:14:12;5.90;;;4.28;;
53654;SDS011;39558;52.028;8.536;2022-08-19T03:16:41;6.38;;;4.30;;
53654;SDS011;39558;52.028;8.536;2022-08-19T03:19:07;7.20;;;4.43;;
53654;SDS011;39558;52.028;8.536;2022-08-19T03:21:33;6.43;;;4.20;;
53654;SDS011;39558;52.028;8.536;2022-08-19T03:24:01;6.18;;;4.10;;
53654;SDS011;39558;52.028;8.536;2022-08-19T03:26:28;6.85;;;4.47;;
53654;SDS011;39558;52.028;8.536;2022-08-19T03:28:54;6.70;;;4.30;;
53654;SDS011;39558;52.028;8.536;2022-08-19T03:31:21;10.77;;;4.60;;
53654;SDS011;39558;52.028;8.536;2022-08-19T03:33:50;5.57;;;4.22;;
53654;SDS011;39558;52.028;8.536;2022-08-19T03:36:18;9.57;;;4.70;;
53654;SDS011;39558;52.028;8.536;2022-08-19T03:38:46;6.88;;;4.70;;
53654;SDS011;39558;52.028;8.536;2022-08-19T03:41:15;7.45;;;4.70;;
53654;SDS011;39558;52.028;8.536;2022-08-19T03:43:41;7.25;;;5.65;;
53654;SDS011;39558;52.028;8.536;2022-08-19T03:46:08;7.07;;;4.85;;
53654;SDS011;39558;52.028;8.536;2022-08-19T03:48:34;7.75;;;4.30;;
53654;SDS011;39558;52.028;8.536;2022-08-19T03:51:02;6.97;;;4.63;;
53654;SDS011;39558;52.028;8.536;2022-08-19T03:53:28;6.97;;;4.93;;
53654;SDS011;39558;52.028;8.536;2022-08-19T03:55:56;8.88;;;5.80;;
53654;SDS011;39558;52.028;8.536;2022-08-19T03:58:24;7.75;;;4.50;;
53654;SDS011;39558;52.028;8.536;2022-08-19T04:00:50;7.88;;;6.20;;
53654;SDS011;39558;52.028;8.536;2022-08-19T04:03:16;6.90;;;5.38;;
53654;SDS011;39558;52.028;8.536;2022-08-19T04:05:43;9.02;;;6.00;;
53654;SDS011;39558;52.028;8.536;2022-08-19T04:08:09;10.00;;;5.70;;
53654;SDS011;39558;52.028;8.536;2022-08-19T04:10:36;9.65;;;5.40;;
53654;SDS011;39558;52.028;8.536;2022-08-19T04:13:02;8.10;;;5.43;;
53654;SDS011;39558;52.028;8.536;2022-08-19T04:15:30;8.27;;;5.35;;
53654;SDS011;39558;52.028;8.536;2022-08-19T04:17:58;6.28;;;4.63;;
53654;SDS011;39558;52.028;8.536;2022-08-19T04:20:24;5.80;;;4.18;;
53654;SDS011;39558;52.028;8.536;2022-08-19T04:22:50;7.93;;;4.53;;
53654;SDS011;39558;52.028;8.536;2022-08-19T04:25:16;8.15;;;4.07;;
53654;SDS011;39558;52.028;8.536;2022-08-19T04:27:42;7.32;;;4.90;;
53654;SDS011;39558;52.028;8.536;2022-08-19T04:30:11;7.57;;;4.80;;
53654;SDS011;39558;52.028;8.536;2022-08-19T04:32:37;5.43;;;3.90;;
53654;SDS011;39558;52.028;8.536;2022-08-19T04:35:03;8.25;;;4.28;;
53654;SDS011;39558;52.028;8.536;2022-08-19T04:37:29;5.85;;;4.00;;
53654;SDS011;39558;52.028;8.536;2022-08-19T04:39:58;6.22;;;4.82;;
53654;SDS011;39558;52.028;8.536;2022-08-19T04:42:42;6.53;;;4.38;;
53654;SDS011;39558;52.028;8.536;2022-08-19T04:45:12;5.80;;;3.97;;
53654;SDS011;39558;52.028;8.536;2022-08-19T04:47:39;6.50;;;4.28;;
53654;SDS011;39558;52.028;8.536;2022-08-19T04:50:06;6.30;;;4.28;;
53654;SDS011;39558;52.028;8.536;2022-08-19T04:52:32;6.88;;;4.20;;
53654;SDS011;39558;52.028;8.536;2022-08-19T04:54:58;6.57;;;3.75;;
53654;SDS011;39558;52.028;8.536;2022-08-19T04:57:24;6.82;;;4.03;;
53654;SDS011;39558;52.028;8.536;2022-08-19T04:59:54;6.03;;;3.72;;
53654;SDS011;39558;52.028;8.536;2022-08-19T05:02:20;7.43;;;3.95;;
53654;SDS011;39558;52.028;8.536;2022-08-19T05:04:49;5.60;;;4.03;;
53654;SDS011;39558;52.028;8.536;2022-08-19T05:07:15;4.50;;;3.58;;
53654;SDS011;39558;52.028;8.536;2022-08-19T05:09:41;6.53;;;3.95;;
53654;SDS011;39558;52.028;8.536;2022-08-19T05:12:07;9.02;;;4.05;;
53654;SDS011;39558;52.028;8.536;2022-08-19T05:14:33;5.82;;;3.67;;
53654;SDS011;39558;52.028;8.536;2022-08-19T05:17:01;5.50;;;3.50;;
53654;SDS011;39558;52.028;8.536;2022-08-19T05:19:27;6.38;;;3.70;;
53654;SDS011;39558;52.028;8.536;2022-08-19T05:22:11;5.50;;;3.47;;
53654;SDS011;39558;52.028;8.536;2022-08-19T05:24:56;5.43;;;3.08;;
53654;SDS011;39558;52.028;8.536;2022-08-19T05:27:22;5.50;;;3.47;;
53654;SDS011;39558;52.028;8.536;2022-08-19T05:29:48;4.97;;;3.67;;
53654;SDS011;39558;52.028;8.536;2022-08-19T05:32:14;5.93;;;3.50;;
53654;SDS011;39558;52.028;8.536;2022-08-19T05:34:40;7.38;;;3.88;;
53654;SDS011;39558;52.028;8.536;2022-08-19T05:37:06;4.55;;;3.30;;
53654;SDS011;39558;52.028;8.536;2022-08-19T05:39:34;4.90;;;3.60;;
53654;SDS011;39558;52.028;8.536;2022-08-19T05:42:03;4.38;;;3.15;;
53654;SDS011;39558;52.028;8.536;2022-08-19T05:44:31;4.97;;;3.42;;
53654;SDS011;39558;52.028;8.536;2022-08-19T05:46:59;4.97;;;3.58;;
53654;SDS011;39558;52.028;8.536;2022-08-19T05:49:25;4.97;;;3.47;;
53654;SDS011;39558;52.028;8.536;2022-08-19T05:51:51;5.07;;;3.28;;
53654;SDS011;39558;52.028;8.536;2022-08-19T05:54:18;5.05;;;2.92;;
53654;SDS011;39558;52.028;8.536;2022-08-19T05:56:45;4.50;;;3.10;;
53654;SDS011;39558;52.028;8.536;2022-08-19T05:59:12;4.78;;;3.13;;
53654;SDS011;39558;52.028;8.536;2022-08-19T06:01:38;5.75;;;3.60;;
53654;SDS011;39558;52.028;8.536;2022-08-19T06:04:05;5.07;;;3.42;;
53654;SDS011;39558;52.028;8.536;2022-08-19T06:06:32;6.28;;;3.60;;
53654;SDS011;39558;52.028;8.536;2022-08-19T06:08:59;4.78;;;3.20;;
53654;SDS011;39558;52.028;8.536;2022-08-19T06:11:31;7.85;;;3.50;;
53654;SDS011;39558;52.028;8.536;2022-08-19T06:13:59;6.05;;;3.35;;
53654;SDS011;39558;52.028;8.536;2022-08-19T06:16:26;5.22;;;3.65;;
53654;SDS011;39558;52.028;8.536;2022-08-19T06:18:52;4.28;;;3.00;;
53654;SDS011;39558;52.028;8.536;2022-08-19T06:21:19;3.88;;;3.10;;
53654;SDS011;39558;52.028;8.536;2022-08-19T06:23:46;4.75;;;3.08;;
53654;SDS011;39558;52.028;8.536;2022-08-19T06:26:12;4.32;;;3.00;;
53654;SDS011;39558;52.028;8.536;2022-08-19T06:28:38;4.53;;;2.90;;
53654;SDS011;39558;52.028;8.536;2022-08-19T06:31:08;5.85;;;3.17;;
53654;SDS011;39558;52.028;8.536;2022-08-19T06:33:34;5.40;;;3.33;;
53654;SDS011;39558;52.028;8.536;2022-08-19T06:36:00;4.85;;;3.20;;
53654;SDS011;39558;52.028;8.536;2022-08-19T06:38:26;7.75;;;4.00;;
53654;SDS011;39558;52.028;8.536;2022-08-19T06:40:59;5.35;;;3.35;;
53654;SDS011;39558;52.028;8.536;2022-08-19T06:43:25;6.28;;;3.92;;
53654;SDS011;39558;52.028;8.536;2022-08-19T06:45:51;5.15;;;3.13;;
53654;SDS011;39558;52.028;8.536;2022-08-19T06:48:17;4.93;;;3.55;;
53654;SDS011;39558;52.028;8.536;2022-08-19T06:50:43;5.53;;;3.70;;
53654;SDS011;39558;52.028;8.536;2022-08-19T06:53:09;4.53;;;3.15;;
53654;SDS011;39558;52.028;8.536;2022-08-19T06:55:35;4.60;;;3.17;;
53654;SDS011;39558;52.028;8.536;2022-08-19T06:58:02;4.43;;;3.22;;
53654;SDS011;39558;52.028;8.536;2022-08-19T07:00:28;4.15;;;2.95;;
53654;SDS011;39558;52.028;8.536;2022-08-19T07:02:54;4.47;;;3.15;;
53654;SDS011;39558;52.028;8.536;2022-08-19T07:05:20;5.45;;;3.97;;
53654;SDS011;39558;52.028;8.536;2022-08-19T07:07:46;5.30;;;3.40;;
53654;SDS011;39558;52.028;8.536;2022-08-19T07:10:12;5.15;;;3.35;;
53654;SDS011;39558;52.028;8.536;2022-08-19T07:12:38;4.85;;;3.50;;
53654;SDS011;39558;52.028;8.536;2022-08-19T07:15:05;5.40;;;3.45;;
53654;SDS011;39558;52.028;8.536;2022-08-19T07:17:33;4.05;;;3.15;;
53654;SDS011;39558;52.028;8.536;2022-08-19T07:20:01;4.22;;;3.00;;
53654;SDS011;39558;52.028;8.536;2022-08-19T07:22:27;5.63;;;3.25;;
53654;SDS011;39558;52.028;8.536;2022-08-19T07:24:53;5.20;;;3.75;;
53654;SDS011;39558;52.028;8.536;2022-08-19T07:27:19;5.10;;;3.45;;
53654;SDS011;39558;52.028;8.536;2022-08-19T07:29:44;6.80;;;3.58;;
53654;SDS011;39558;52.028;8.536;2022-08-19T07:32:11;5.63;;;3.63;;
53654;SDS011;39558;52.028;8.536;2022-08-19T07:34:37;5.50;;;3.40;;
53654;SDS011;39558;52.028;8.536;2022-08-19T07:37:05;4.80;;;3.28;;
53654;SDS011;39558;52.028;8.536;2022-08-19T07:39:32;5.38;;;3.15;;
53654;SDS011;39558;52.028;8.536;2022-08-19T07:41:59;5.13;;;3.08;;
53654;SDS011;39558;52.028;8.536;2022-08-19T07:44:25;5.32;;;3.53;;
53654;SDS011;39558;52.028;8.536;2022-08-19T07:46:53;5.60;;;4.20;;
53654;SDS011;39558;52.028;8.536;2022-08-19T07:49:20;6.25;;;3.72;;
53654;SDS011;39558;52.028;8.536;2022-08-19T07:51:52;5.32;;;3.60;;
53654;SDS011;39558;52.028;8.536;2022-08-19T07:54:19;4.78;;;3.50;;
53654;SDS011;39558;52.028;8.536;2022-08-19T07:56:45;4.35;;;3.40;;
53654;SDS011;39558;52.028;8.536;2022-08-19T07:59:11;5.93;;;3.80;;
53654;SDS011;39558;52.028;8.536;2022-08-19T08:01:38;4.55;;;3.33;;
53654;SDS011;39558;52.028;8.536;2022-08-19T08:04:05;5.20;;;3.92;;
53654;SDS011;39558;52.028;8.536;2022-08-19T08:06:49;4.88;;;3.38;;
53654;SDS011;39558;52.028;8.536;2022-08-19T08:09:36;5.50;;;4.00;;
53654;SDS011;39558;52.028;8.536;2022-08-19T08:12:16;5.88;;;4.00;;
53654;SDS011;39558;52.028;8.536;2022-08-19T08:14:43;5.75;;;3.17;;
53654;SDS011;39558;52.028;8.536;2022-08-19T08:17:11;4.72;;;3.65;;
53654;SDS011;39558;52.028;8.536;2022-08-19T08:19:37;4.55;;;3.25;;
53654;SDS011;39558;52.028;8.536;2022-08-19T08:22:05;4.35;;;3.33;;
53654;SDS011;39558;52.028;8.536;2022-08-19T08:24:32;4.53;;;3.85;;
53654;SDS011;39558;52.028;8.536;2022-08-19T08:26:58;5.22;;;3.78;;
53654;SDS011;39558;52.028;8.536;2022-08-19T08:29:29;6.15;;;3.80;;
53654;SDS011;39558;52.028;8.536;2022-08-19T08:34:21;5.88;;;3.67;;
53654;SDS011;39558;52.028;8.536;2022-08-19T08:36:47;4.88;;;3.42;;
53654;SDS011;39558;52.028;8.536;2022-08-19T08:39:14;4.45;;;3.42;;
53654;SDS011;39558;52.028;8.536;2022-08-19T08:41:58;6.72;;;3.92;;
53654;SDS011;39558;52.028;8.536;2022-08-19T08:44:43;5.03;;;3.58;;
53654;SDS011;39558;52.028;8.536;2022-08-19T08:47:14;5.13;;;4.00;;
53654;SDS011;39558;52.028;8.536;2022-08-19T08:49:48;5.47;;;3.22;;
53654;SDS011;39558;52.028;8.536;2022-08-19T08:52:31;5.38;;;4.10;;
53654;SDS011;39558;52.028;8.536;2022-08-19T08:55:00;5.70;;;4.30;;
53654;SDS011;39558;52.028;8.536;2022-08-19T09:00:29;6.18;;;4.00;;
53654;SDS011;39558;52.028;8.536;2022-08-19T09:02:57;5.07;;;3.83;;
53654;SDS011;39558;52.028;8.536;2022-08-19T09:05:24;5.53;;;3.67;;
53654;SDS011;39558;52.028;8.536;2022-08-19T09:07:59;4.78;;;3.50;;
53654;SDS011;39558;52.028;8.536;2022-08-19T09:10:31;6.57;;;4.03;;
53654;SDS011;39558;52.028;8.536;2022-08-19T09:13:17;5.75;;;3.90;;
53654;SDS011;39558;52.028;8.536;2022-08-19T09:15:54;4.97;;;3.60;;
53654;SDS011;39558;52.028;8.536;2022-08-19T09:18:22;4.80;;;3.60;;
53654;SDS011;39558;52.028;8.536;2022-08-19T09:20:48;6.43;;;3.95;;
53654;SDS011;39558;52.028;8.536;2022-08-19T09:23:14;4.53;;;3.50;;
53654;SDS011;39558;52.028;8.536;2022-08-19T09:25:40;5.18;;;3.58;;
53654;SDS011;39558;52.028;8.536;2022-08-19T09:28:06;5.68;;;3.90;;
53654;SDS011;39558;52.028;8.536;2022-08-19T09:30:34;5.95;;;4.10;;
53654;SDS011;39558;52.028;8.536;2022-08-19T09:33:00;7.03;;;4.30;;
53654;SDS011;39558;52.028;8.536;2022-08-19T09:35:27;5.90;;;4.35;;
53654;SDS011;39558;52.028;8.536;2022-08-19T09:37:54;6.50;;;5.13;;
53654;SDS011;39558;52.028;8.536;2022-08-19T09:40:20;6.03;;;4.38;;
53654;SDS011;39558;52.028;8.536;2022-08-19T09:42:46;5.07;;;3.78;;
53654;SDS011;39558;52.028;8.536;2022-08-19T09:45:13;7.43;;;4.00;;
53654;SDS011;39558;52.028;8.536;2022-08-19T09:47:39;5.43;;;3.70;;
53654;SDS011;39558;52.028;8.536;2022-08-19T09:50:06;6.25;;;4.03;;
53654;SDS011;39558;52.028;8.536;2022-08-19T09:52:33;6.78;;;4.13;;
53654;SDS011;39558;52.028;8.536;2022-08-19T09:55:01;5.72;;;3.90;;
53654;SDS011;39558;52.028;8.536;2022-08-19T09:57:27;5.75;;;4.15;;
53654;SDS011;39558;52.028;8.536;2022-08-19T09:59:53;4.43;;;3.53;;
53654;SDS011;39558;52.028;8.536;2022-08-19T10:02:19;5.45;;;3.90;;
53654;SDS011;39558;52.028;8.536;2022-08-19T10:04:44;6.22;;;4.10;;
53654;SDS011;39558;52.028;8.536;2022-08-19T10:07:29;6.85;;;4.00;;
53654;SDS011;39558;52.028;8.536;2022-08-19T10:09:55;4.68;;;3.85;;
53654;SDS011;39558;52.028;8.536;2022-08-19T10:12:21;5.03;;;3.72;;
53654;SDS011;39558;52.028;8.536;2022-08-19T10:14:47;6.60;;;4.50;;
53654;SDS011;39558;52.028;8.536;2022-08-19T10:17:15;6.15;;;3.97;;
53654;SDS011;39558;52.028;8.536;2022-08-19T10:19:42;6.88;;;4.20;;
53654;SDS011;39558;52.028;8.536;2022-08-19T10:22:08;5.15;;;3.95;;
53654;SDS011;39558;52.028;8.536;2022-08-19T10:24:38;7.70;;;3.92;;
53654;SDS011;39558;52.028;8.536;2022-08-19T10:27:04;7.80;;;5.82;;
53654;SDS011;39558;52.028;8.536;2022-08-19T10:29:31;5.68;;;4.25;;
53654;SDS011;39558;52.028;8.536;2022-08-19T10:32:00;6.60;;;4.53;;
53654;SDS011;39558;52.028;8.536;2022-08-19T10:34:26;6.43;;;3.95;;
53654;SDS011;39558;52.028;8.536;2022-08-19T10:36:52;7.43;;;4.13;;
53654;SDS011;39558;52.028;8.536;2022-08-19T10:39:18;6.53;;;4.13;;
53654;SDS011;39558;52.028;8.536;2022-08-19T10:41:44;5.25;;;3.72;;
53654;SDS011;39558;52.028;8.536;2022-08-19T10:44:11;5.90;;;4.30;;
53654;SDS011;39558;52.028;8.536;2022-08-19T10:46:39;5.25;;;4.38;;
53654;SDS011;39558;52.028;8.536;2022-08-19T10:49:06;5.03;;;3.88;;
53654;SDS011;39558;52.028;8.536;2022-08-19T10:51:33;4.97;;;3.70;;
53654;SDS011;39558;52.028;8.536;2022-08-19T10:54:17;6.15;;;4.35;;
53654;SDS011;39558;52.028;8.536;2022-08-19T10:56:44;5.40;;;4.20;;
53654;SDS011;39558;52.028;8.536;2022-08-19T10:59:17;4.68;;;3.67;;
53654;SDS011;39558;52.028;8.536;2022-08-19T11:01:44;6.55;;;4.50;;
53654;SDS011;39558;52.028;8.536;2022-08-19T11:04:11;6.10;;;4.38;;
53654;SDS011;39558;52.028;8.536;2022-08-19T11:06:38;5.75;;;4.28;;
53654;SDS011;39558;52.028;8.536;2022-08-19T11:09:07;8.10;;;4.80;;
53654;SDS011;39558;52.028;8.536;2022-08-19T11:11:33;7.00;;;4.50;;
53654;SDS011;39558;52.028;8.536;2022-08-19T11:14:04;5.28;;;4.15;;
53654;SDS011;39558;52.028;8.536;2022-08-19T11:16:30;7.70;;;4.68;;
53654;SDS011;39558;52.028;8.536;2022-08-19T11:18:57;7.50;;;4.95;;
53654;SDS011;39558;52.028;8.536;2022-08-19T11:21:34;5.55;;;4.07;;
53654;SDS011;39558;52.028;8.536;2022-08-19T11:24:01;6.28;;;4.20;;
53654;SDS011;39558;52.028;8.536;2022-08-19T11:26:28;7.45;;;3.88;;
53654;SDS011;39558;52.028;8.536;2022-08-19T11:28:56;5.50;;;4.25;;
53654;SDS011;39558;52.028;8.536;2022-08-19T11:31:26;5.43;;;3.88;;
53654;SDS011;39558;52.028;8.536;2022-08-19T11:33:52;5.55;;;3.90;;
53654;SDS011;39558;52.028;8.536;2022-08-19T11:36:19;5.80;;;4.47;;
53654;SDS011;39558;52.028;8.536;2022-08-19T11:38:46;6.53;;;4.18;;
53654;SDS011;39558;52.028;8.536;2022-08-19T11:41:13;5.15;;;3.65;;
53654;SDS011;39558;52.028;8.536;2022-08-19T11:43:39;5.57;;;4.07;;
53654;SDS011;39558;52.028;8.536;2022-08-19T11:46:08;7.50;;;4.53;;
53654;SDS011;39558;52.028;8.536;2022-08-19T11:48:35;4.82;;;3.63;;
53654;SDS011;39558;52.028;8.536;2022-08-19T11:51:03;6.38;;;3.80;;
53654;SDS011;39558;52.028;8.536;2022-08-19T11:53:31;5.90;;;3.72;;
53654;SDS011;39558;52.028;8.536;2022-08-19T11:55:56;4.97;;;4.05;;
53654;SDS011;39558;52.028;8.536;2022-08-19T11:58:23;5.35;;;3.58;;
53654;SDS011;39558;52.028;8.536;2022-08-19T12:00:50;5.97;;;4.25;;
53654;SDS011;39558;52.028;8.536;2022-08-19T12:03:16;4.88;;;3.95;;
53654;SDS011;39558;52.028;8.536;2022-08-19T12:05:43;6.78;;;4.38;;
53654;SDS011;39558;52.028;8.536;2022-08-19T12:08:09;6.85;;;5.15;;
53654;SDS011;39558;52.028;8.536;2022-08-19T12:10:36;7.03;;;5.28;;
53654;SDS011;39558;52.028;8.536;2022-08-19T12:13:02;5.18;;;3.85;;
53654;SDS011;39558;52.028;8.536;2022-08-19T12:15:28;6.47;;;4.07;;
53654;SDS011;39558;52.028;8.536;2022-08-19T12:17:55;6.88;;;4.30;;
53654;SDS011;39558;52.028;8.536;2022-08-19T12:20:21;5.32;;;3.85;;
53654;SDS011;39558;52.028;8.536;2022-08-19T12:22:47;6.78;;;4.45;;
53654;SDS011;39558;52.028;8.536;2022-08-19T12:25:13;5.07;;;3.60;;
53654;SDS011;39558;52.028;8.536;2022-08-19T12:27:39;7.88;;;4.40;;
53654;SDS011;39558;52.028;8.536;2022-08-19T12:30:06;8.45;;;4.45;;
53654;SDS011;39558;52.028;8.536;2022-08-19T12:32:33;5.60;;;4.13;;
53654;SDS011;39558;52.028;8.536;2022-08-19T12:34:59;4.72;;;3.60;;
53654;SDS011;39558;52.028;8.536;2022-08-19T12:37:24;5.95;;;3.53;;
53654;SDS011;39558;52.028;8.536;2022-08-19T12:39:51;6.18;;;3.90;;
53654;SDS011;39558;52.028;8.536;2022-08-19T12:42:17;5.45;;;4.32;;
53654;SDS011;39558;52.028;8.536;2022-08-19T12:44:43;6.38;;;4.22;;
53654;SDS011;39558;52.028;8.536;2022-08-19T12:47:10;6.28;;;4.10;;
53654;SDS011;39558;52.028;8.536;2022-08-19T12:49:37;5.85;;;4.00;;
53654;SDS011;39558;52.028;8.536;2022-08-19T12:52:04;5.90;;;3.70;;
53654;SDS011;39558;52.028;8.536;2022-08-19T12:54:30;5.47;;;4.07;;
53654;SDS011;39558;52.028;8.536;2022-08-19T12:56:57;5.45;;;3.85;;
53654;SDS011;39558;52.028;8.536;2022-08-19T12:59:23;7.00;;;4.30;;
53654;SDS011;39558;52.028;8.536;2022-08-19T13:01:49;5.30;;;3.85;;
53654;SDS011;39558;52.028;8.536;2022-08-19T13:04:15;5.60;;;3.53;;
53654;SDS011;39558;52.028;8.536;2022-08-19T13:06:41;5.97;;;3.88;;
53654;SDS011;39558;52.028;8.536;2022-08-19T13:09:07;7.43;;;4.50;;
53654;SDS011;39558;52.028;8.536;2022-08-19T13:11:33;5.75;;;3.63;;
53654;SDS011;39558;52.028;8.536;2022-08-19T13:14:00;7.18;;;4.13;;
53654;SDS011;39558;52.028;8.536;2022-08-19T13:16:26;4.70;;;3.53;;
53654;SDS011;39558;52.028;8.536;2022-08-19T13:18:53;6.30;;;4.53;;
53654;SDS011;39558;52.028;8.536;2022-08-19T13:21:20;7.82;;;4.45;;
53654;SDS011;39558;52.028;8.536;2022-08-19T13:23:46;5.50;;;4.15;;
53654;SDS011;39558;52.028;8.536;2022-08-19T13:26:13;6.03;;;3.90;;
53654;SDS011;39558;52.028;8.536;2022-08-19T13:28:39;6.10;;;4.22;;
53654;SDS011;39558;52.028;8.536;2022-08-19T13:31:25;5.78;;;4.47;;
53654;SDS011;39558;52.028;8.536;2022-08-19T13:34:10;9.68;;;4.90;;
53654;SDS011;39558;52.028;8.536;2022-08-19T13:36:37;5.38;;;4.10;;
53654;SDS011;39558;52.028;8.536;2022-08-19T13:39:04;8.30;;;3.90;;
53654;SDS011;39558;52.028;8.536;2022-08-19T13:41:30;6.55;;;4.30;;
53654;SDS011;39558;52.028;8.536;2022-08-19T13:43:56;4.90;;;3.75;;
53654;SDS011;39558;52.028;8.536;2022-08-19T13:46:22;5.68;;;4.22;;
53654;SDS011;39558;52.028;8.536;2022-08-19T13:48:48;6.85;;;4.00;;
53654;SDS011;39558;52.028;8.536;2022-08-19T13:51:14;5.88;;;4.88;;
53654;SDS011;39558;52.028;8.536;2022-08-19T13:53:41;6.43;;;3.53;;
53654;SDS011;39558;52.028;8.536;2022-08-19T13:56:09;5.65;;;4.10;;
53654;SDS011;39558;52.028;8.536;2022-08-19T13:58:35;6.57;;;4.13;;
53654;SDS011;39558;52.028;8.536;2022-08-19T14:01:01;5.43;;;3.90;;
53654;SDS011;39558;52.028;8.536;2022-08-19T14:03:27;6.00;;;4.05;;
53654;SDS011;39558;52.028;8.536;2022-08-19T14:05:53;7.07;;;5.43;;
53654;SDS011;39558;52.028;8.536;2022-08-19T14:08:19;9.05;;;4.60;;
53654;SDS011;39558;52.028;8.536;2022-08-19T14:10:45;5.53;;;4.20;;
53654;SDS011;39558;52.028;8.536;2022-08-19T14:13:13;5.68;;;4.07;;
53654;SDS011;39558;52.028;8.536;2022-08-19T14:15:39;6.25;;;4.28;;
53654;SDS011;39558;52.028;8.536;2022-08-19T14:18:05;9.20;;;4.70;;
53654;SDS011;39558;52.028;8.536;2022-08-19T14:20:33;6.80;;;4.72;;
53654;SDS011;39558;52.028;8.536;2022-08-19T14:22:59;6.40;;;4.45;;
53654;SDS011;39558;52.028;8.536;2022-08-19T14:25:26;7.25;;;4.63;;
53654;SDS011;39558;52.028;8.536;2022-08-19T14:27:52;5.75;;;4.05;;
53654;SDS011;39558;52.028;8.536;2022-08-19T14:30:22;7.20;;;4.40;;
53654;SDS011;39558;52.028;8.536;2022-08-19T14:32:50;7.32;;;4.43;;
53654;SDS011;39558;52.028;8.536;2022-08-19T14:35:16;6.93;;;3.80;;
53654;SDS011;39558;52.028;8.536;2022-08-19T14:37:43;7.05;;;4.28;;
53654;SDS011;39558;52.028;8.536;2022-08-19T14:40:09;6.35;;;4.35;;
53654;SDS011;39558;52.028;8.536;2022-08-19T14:42:36;6.00;;;4.78;;
53654;SDS011;39558;52.028;8.536;2022-08-19T14:45:02;5.45;;;4.30;;
53654;SDS011;39558;52.028;8.536;2022-08-19T14:47:29;5.68;;;3.90;;
53654;SDS011;39558;52.028;8.536;2022-08-19T14:49:56;6.95;;;4.57;;
53654;SDS011;39558;52.028;8.536;2022-08-19T14:52:21;6.85;;;4.55;;
53654;SDS011;39558;52.028;8.536;2022-08-19T14:54:47;7.18;;;4.55;;